• Join FlightAware (Why Join?)
  • Login
  • US Flag 
08:20AM EDT


 

Airport Tracker/Info


-or-


 

Live Flight TrackerFlight Track Log ✈ UAL3827 ✈ 04-Mar-2014 ✈ KSCE - KORD

Flight Track Log - Related Links

Times and Time Zones

All times are in EST time to prevent confusion due to time zone crossing. See the UAL3827 flight status page for this flight to view local times or setup timezone preferences in your user account.

Time Position Orientation Groundspeed Altitude Reporting Facility
EST Latitude Longitude Course Direction KTS MPH feet Rate Location/Type
05:44PM 40.8258 -77.8961 289° West 166 191 3,700  Level Cleveland Center
05:45PM 40.8436 -77.9639 289° West 224 258 5,300 2,160 Climbing Cleveland Center
05:46PM 40.8444 -78.0500 271° West 226 260 8,200 2,160 Climbing Cleveland Center
05:47PM 40.8422 -78.1336 268° West 237 273 9,900 1,260 Climbing Cleveland Center
05:48PM 40.8408 -78.2392 269° West 276 318 10,900 1,260 Climbing Cleveland Center
05:49PM 40.8406 -78.3719 270° West 308 354 12,600 1,500 Climbing Cleveland Center
05:50PM 40.8381 -78.4919 268° West 321 369 14,100 1,380 Climbing Cleveland Center
05:51PM 40.8372 -78.6153 270° West 329 379 15,500 1,260 Climbing Cleveland Center
05:52PM 40.8353 -78.7400 269° West 333 383 16,800 1,200 Climbing Cleveland Center
05:53PM 40.8325 -78.8639 268° West 335 386 18,100 1,380 Climbing Cleveland Center
05:55PM 40.8308 -78.9889 269° West 337 388 19,700 1,440 Climbing Cleveland Center
05:56PM 40.8311 -79.1114 270° West 338 389 21,100 1,500 Climbing Cleveland Center
05:57PM 40.8525 -79.2544 281° West 335 386 22,900 1,560 Climbing Cleveland Center
05:58PM 40.8675 -79.3742 279° West 335 386 24,400 1,440 Climbing Cleveland Center
05:59PM 40.8822 -79.4939 279° West 335 386 25,900 1,380 Climbing Cleveland Center
06:00PM 40.8969 -79.6106 280° West 330 380 27,300 1,380 Climbing Cleveland Center
06:01PM 40.9103 -79.7236 279° West 318 366 28,800 1,560 Climbing Cleveland Center
06:02PM 40.9269 -79.8547 280° West 307 353 30,600 1,500 Climbing Cleveland Center
06:03PM 40.9392 -79.9594 279° West 296 341 31,900 1,080 Climbing Cleveland Center
06:04PM 40.9528 -80.0647 280° West 295 339 32,900 960 Climbing Cleveland Center
06:05PM 40.9653 -80.1706 279° West 295 339 33,900 960 Climbing Cleveland Center
06:06PM 40.9772 -80.2742 279° West 291 335 34,900 960 Climbing Cleveland Center
06:07PM 40.9922 -80.3944 279° West 284 327 36,000 480 Climbing Cleveland Center
06:08PM 41.0039 -80.4947 279° West 278 320 36,000  Level Cleveland Center
06:09PM 41.0158 -80.6019 278° West 289 333 36,000  Level Cleveland Center
06:10PM 41.0283 -80.7128 279° West 300 345 36,000  Level Cleveland Center
06:11PM 41.0419 -80.8247 279° West 305 351 36,000  Level Cleveland Center
06:12PM 41.0522 -80.9375 277° West 306 352 36,000  Level Cleveland Center
06:13PM 41.0594 -81.0603 275° West 307 353 36,000  Level Cleveland Center
06:14PM 41.0689 -81.1939 275° West 308 354 36,000  Level Cleveland Center
06:15PM 41.0756 -81.3092 274° West 309 356 36,000  Level Cleveland Center
06:16PM 41.0822 -81.4250 274° West 309 356 36,000  Level Cleveland Center
06:17PM 41.0903 -81.5422 275° West 311 358 36,000  Level Cleveland Center
06:18PM 41.0975 -81.6583 275° West 311 358 36,000  Level Cleveland Center
06:19PM 41.1033 -81.7753 274° West 311 358 36,000  Level Cleveland Center
06:20PM 41.1103 -81.8911 275° West 311 358 36,000  Level Cleveland Center
06:21PM 41.1167 -82.0078 274° West 311 358 36,000  Level Cleveland Center
06:22PM 41.1236 -82.1250 275° West 312 359 36,000  Level Cleveland Center
06:24PM 41.1311 -82.2619 274° West 316 364 36,000  Level Cleveland Center
06:25PM 41.1372 -82.3803 274° West 317 365 36,000  Level Cleveland Center
06:26PM 41.1436 -82.5008 274° West 320 368 36,000  Level Cleveland Center
06:27PM 41.1494 -82.6203 274° West 321 369 36,000  Level Cleveland Center
06:28PM 41.1561 -82.7381 274° West 319 367 36,000  Level Cleveland Center
06:29PM 41.1611 -82.8586 273° West 320 368 36,000  Level Cleveland Center
06:30PM 41.1683 -82.9775 275° West 320 368 36,000  Level Cleveland Center
06:31PM 41.1742 -83.0989 274° West 324 373 36,000  Level Cleveland Center
06:32PM 41.1806 -83.2331 274° West 324 373 36,000  Level Cleveland Center
06:33PM 41.1861 -83.3547 274° West 325 374 36,000  Level Cleveland Center
06:34PM 41.1914 -83.4742 273° West 326 375 36,000  Level Cleveland Center
06:35PM 41.1972 -83.5967 274° West 327 376 36,000  Level Cleveland Center
06:36PM 41.2031 -83.7408 273° West 327 376 36,000  Level Cleveland Center
06:37PM 41.2083 -83.8628 273° West 328 377 36,000  Level Cleveland Center
06:38PM 41.2131 -83.9692 273° West 328 377 36,000 -300 Level Cleveland Center
06:39PM 41.2156 -84.0422 273° West 331 381 35,600 -960 Descending Chicago Center
06:40PM 41.2206 -84.1644 273° West 331 381 34,600 -780 Descending Chicago Center
06:41PM 41.2250 -84.2897 273° West 338 389 34,000 -300 Descending Chicago Center
06:42PM 41.2289 -84.4186 272° West 348 400 34,000  Level Chicago Center
06:43PM 41.2331 -84.5758 272° West 354 407 34,000  Level Chicago Center
06:44PM 41.2361 -84.7075 272° West 356 410 34,000  Level Chicago Center
06:45PM 41.2419 -84.8383 273° West 355 409 34,000 -240 Level Chicago Center
06:46PM 41.2456 -84.9692 272° West 354 407 33,500 -780 Descending Chicago Center
06:47PM 41.2481 -85.0914 272° West 339 390 32,500 -1,080 Descending Chicago Center
06:48PM 41.2233 -85.2028 254° West 322 371 31,400 -1,080 Descending Chicago Center
06:49PM 41.1886 -85.3083 246° West 315 362 30,400 -1,140 Descending Chicago Center
06:50PM 41.2058 -85.4422 280° West 309 356 29,100 -1,200 Descending Chicago Center
06:51PM 41.2225 -85.5650 280° West 325 374 28,000 -1,260 Descending Chicago Center
06:52PM 41.2397 -85.6983 280° West 358 412 26,500 -1,440 Descending Chicago Center
06:53PM 41.2578 -85.8392 280° West 382 440 25,100 -780 Descending Chicago Center
06:54PM 41.2761 -85.9769 280° West 378 435 25,000 -540 Descending Chicago Center
06:55PM 41.3131 -86.1050 291° West 381 438 24,100 -1,200 Descending Chicago Center
06:56PM 41.3714 -86.2217 304° West 378 435 22,600 -1,500 Descending Chicago Center
06:57PM 41.4278 -86.3333 304° West 367 422 21,100 -1,800 Descending Chicago Center
06:58PM 41.4925 -86.4631 304° West 351 404 19,000 -2,040 Descending Chicago Center
06:59PM 41.5442 -86.5672 304° West 340 391 17,000 -2,640 Descending Chicago Center
07:00PM 41.5947 -86.6703 303° West 333 383 13,700 -2,460 Descending Chicago Center
07:01PM 41.6550 -86.7781 307° West 323 372 12,000 -780 Descending Chicago Center
07:02PM 41.7425 -86.8047 347° North 328 377 12,100  Climbing Chicago Center
07:03PM 41.8411 -86.8250 351° North 334 384 12,100 -420 Level Chicago Center
07:04PM 41.8914 -86.9164 306° West 327 376 11,300 -900 Descending Chicago Center
07:05PM 41.9164 -87.0367 286° West 315 362 10,300 -660 Descending Chicago Center
07:06PM 41.9403 -87.1472 286° West 309 356 10,000 -300 Descending Chicago Center
07:07PM 41.9622 -87.2481 286° West 281 323 9,800 -720 Descending Chicago Center
07:08PM 41.9808 -87.3400 285° West 241 277 8,600 -1,080 Descending Chicago Center
07:09PM 41.9814 -87.4317 270° West 246 283 7,600 -1,080 Descending Chicago Center
07:11PM 41.9828 -87.5281 271° West 240 276 6,400 -1,260 Descending Chicago Center
07:12PM 41.9831 -87.6100 270° West 222 255 5,100 -1,020 Descending Chicago Center
07:12PM 41.9833 -87.6667 270° West 193 222 4,600 -1,140 Descending Chicago TRACON
07:13PM 41.9833 -87.7333 270° West 173 199 3,200 -1,200 Descending Chicago TRACON
07:14PM 41.9833 -87.8000 270° West 174 200 2,200 -960 Descending Chicago TRACON
07:15PM 41.9833 -87.8500 270° West 143 165 1,300 -900 Descending Chicago TRACON
07:18PM 41.9667 -87.9000 270° West  Level FlightAware Approximate
07:25PM 41.9793 -87.9074 270° West  Level Estimated
07:26PM 41.9793 -87.9074 270° West  Level Estimated
07:27PM 41.9793 -87.9074 270° West  Level Estimated